sensor_id;sensor_type;location;lat;lon;timestamp;temperature;humidity
23591;DHT22;11973;52.098;7.582;2022-12-05T00:01:32;3.00;99.90
23591;DHT22;11973;52.098;7.582;2022-12-05T00:04:03;2.90;99.90
23591;DHT22;11973;52.098;7.582;2022-12-05T00:06:30;2.90;99.90
23591;DHT22;11973;52.098;7.582;2022-12-05T00:08:56;3.20;99.90
23591;DHT22;11973;52.098;7.582;2022-12-05T00:11:24;2.90;99.90
23591;DHT22;11973;52.098;7.582;2022-12-05T00:13:52;2.90;99.90
23591;DHT22;11973;52.098;7.582;2022-12-05T00:16:20;3.00;99.90
23591;DHT22;11973;52.098;7.582;2022-12-05T00:18:46;3.00;99.90
23591;DHT22;11973;52.098;7.582;2022-12-05T00:21:21;3.00;99.90
23591;DHT22;11973;52.098;7.582;2022-12-05T00:23:47;3.00;99.90
23591;DHT22;11973;52.098;7.582;2022-12-05T00:26:13;3.00;99.90
23591;DHT22;11973;52.098;7.582;2022-12-05T00:28:39;3.00;99.90
23591;DHT22;11973;52.098;7.582;2022-12-05T00:31:08;3.00;99.90
23591;DHT22;11973;52.098;7.582;2022-12-05T00:33:35;3.00;99.90
23591;DHT22;11973;52.098;7.582;2022-12-05T00:36:06;3.00;99.90
23591;DHT22;11973;52.098;7.582;2022-12-05T00:38:32;3.00;99.90
23591;DHT22;11973;52.098;7.582;2022-12-05T00:41:04;3.00;99.90
23591;DHT22;11973;52.098;7.582;2022-12-05T00:43:31;3.00;99.90
23591;DHT22;11973;52.098;7.582;2022-12-05T00:46:07;3.00;99.90
23591;DHT22;11973;52.098;7.582;2022-12-05T00:48:34;3.00;99.90
23591;DHT22;11973;52.098;7.582;2022-12-05T00:53:31;3.00;99.90
23591;DHT22;11973;52.098;7.582;2022-12-05T00:56:19;3.00;99.90
23591;DHT22;11973;52.098;7.582;2022-12-05T00:58:45;3.10;99.90
23591;DHT22;11973;52.098;7.582;2022-12-05T01:01:26;3.10;99.90
23591;DHT22;11973;52.098;7.582;2022-12-05T01:03:54;3.10;99.90
23591;DHT22;11973;52.098;7.582;2022-12-05T01:06:21;3.10;99.90
23591;DHT22;11973;52.098;7.582;2022-12-05T01:08:48;3.10;99.90
23591;DHT22;11973;52.098;7.582;2022-12-05T01:11:15;3.10;99.90
23591;DHT22;11973;52.098;7.582;2022-12-05T01:13:41;3.10;99.90
23591;DHT22;11973;52.098;7.582;2022-12-05T01:16:17;3.10;99.90
23591;DHT22;11973;52.098;7.582;2022-12-05T01:18:43;3.10;99.90
23591;DHT22;11973;52.098;7.582;2022-12-05T01:21:10;3.10;99.90
23591;DHT22;11973;52.098;7.582;2022-12-05T01:23:36;3.10;99.90
23591;DHT22;11973;52.098;7.582;2022-12-05T01:26:06;3.30;99.90
23591;DHT22;11973;52.098;7.582;2022-12-05T01:28:33;3.10;99.90
23591;DHT22;11973;52.098;7.582;2022-12-05T01:31:06;3.10;99.90
23591;DHT22;11973;52.098;7.582;2022-12-05T01:33:33;3.10;99.90
23591;DHT22;11973;52.098;7.582;2022-12-05T01:36:00;3.10;99.90
23591;DHT22;11973;52.098;7.582;2022-12-05T01:38:26;3.10;99.90
23591;DHT22;11973;52.098;7.582;2022-12-05T01:41:03;3.10;99.90
23591;DHT22;11973;52.098;7.582;2022-12-05T01:43:30;3.20;99.90
23591;DHT22;11973;52.098;7.582;2022-12-05T01:45:55;3.40;99.90
23591;DHT22;11973;52.098;7.582;2022-12-05T01:48:32;3.10;99.90
23591;DHT22;11973;52.098;7.582;2022-12-05T01:51:01;3.10;99.90
23591;DHT22;11973;52.098;7.582;2022-12-05T01:53:27;3.20;99.90
23591;DHT22;11973;52.098;7.582;2022-12-05T01:55:54;3.20;99.90
23591;DHT22;11973;52.098;7.582;2022-12-05T01:58:20;3.20;99.90
23591;DHT22;11973;52.098;7.582;2022-12-05T02:00:49;3.20;99.90
23591;DHT22;11973;52.098;7.582;2022-12-05T02:03:17;3.20;99.90
23591;DHT22;11973;52.098;7.582;2022-12-05T02:05:46;3.20;99.90
23591;DHT22;11973;52.098;7.582;2022-12-05T02:08:13;3.20;99.90
23591;DHT22;11973;52.098;7.582;2022-12-05T02:10:45;3.20;99.90
23591;DHT22;11973;52.098;7.582;2022-12-05T02:13:27;3.20;99.90
23591;DHT22;11973;52.098;7.582;2022-12-05T02:16:03;3.20;99.90
23591;DHT22;11973;52.098;7.582;2022-12-05T02:18:43;3.20;99.90
23591;DHT22;11973;52.098;7.582;2022-12-05T02:29:59;3.20;99.90
23591;DHT22;11973;52.098;7.582;2022-12-05T02:38:17;3.20;99.90
23591;DHT22;11973;52.098;7.582;2022-12-05T02:41:02;3.20;99.90
23591;DHT22;11973;52.098;7.582;2022-12-05T02:43:38;3.20;99.90
23591;DHT22;11973;52.098;7.582;2022-12-05T02:46:10;3.20;99.90
23591;DHT22;11973;52.098;7.582;2022-12-05T02:48:38;3.20;99.90
23591;DHT22;11973;52.098;7.582;2022-12-05T02:51:07;3.20;99.90
23591;DHT22;11973;52.098;7.582;2022-12-05T02:53:35;3.20;99.90
23591;DHT22;11973;52.098;7.582;2022-12-05T02:56:03;3.20;99.90
23591;DHT22;11973;52.098;7.582;2022-12-05T02:58:33;3.20;99.90
23591;DHT22;11973;52.098;7.582;2022-12-05T03:01:01;3.20;99.90
23591;DHT22;11973;52.098;7.582;2022-12-05T03:03:31;3.20;99.90
23591;DHT22;11973;52.098;7.582;2022-12-05T03:06:05;3.20;99.90
23591;DHT22;11973;52.098;7.582;2022-12-05T03:08:41;3.20;99.90
23591;DHT22;11973;52.098;7.582;2022-12-05T03:11:09;3.20;99.90
23591;DHT22;11973;52.098;7.582;2022-12-05T03:13:42;3.20;99.90
23591;DHT22;11973;52.098;7.582;2022-12-05T03:16:22;3.30;99.90
23591;DHT22;11973;52.098;7.582;2022-12-05T03:19:03;3.20;99.90
23591;DHT22;11973;52.098;7.582;2022-12-05T03:21:37;3.20;99.90
23591;DHT22;11973;52.098;7.582;2022-12-05T03:24:10;3.20;99.90
23591;DHT22;11973;52.098;7.582;2022-12-05T03:27:18;3.20;99.90
23591;DHT22;11973;52.098;7.582;2022-12-05T03:29:48;3.20;99.90
23591;DHT22;11973;52.098;7.582;2022-12-05T03:37:35;3.30;99.90
23591;DHT22;11973;52.098;7.582;2022-12-05T03:40:23;3.30;99.90
23591;DHT22;11973;52.098;7.582;2022-12-05T03:50:50;3.30;99.90
23591;DHT22;11973;52.098;7.582;2022-12-05T03:53:27;3.30;99.90
23591;DHT22;11973;52.098;7.582;2022-12-05T03:56:12;3.30;99.90
23591;DHT22;11973;52.098;7.582;2022-12-05T03:58:50;3.30;99.90
23591;DHT22;11973;52.098;7.582;2022-12-05T04:01:20;3.30;99.90
23591;DHT22;11973;52.098;7.582;2022-12-05T04:03:50;3.30;99.90
23591;DHT22;11973;52.098;7.582;2022-12-05T04:06:30;3.30;99.90
23591;DHT22;11973;52.098;7.582;2022-12-05T04:09:10;3.30;99.90
23591;DHT22;11973;52.098;7.582;2022-12-05T04:11:42;3.30;99.90
23591;DHT22;11973;52.098;7.582;2022-12-05T04:14:27;3.30;99.90
23591;DHT22;11973;52.098;7.582;2022-12-05T04:17:04;3.30;99.90
23591;DHT22;11973;52.098;7.582;2022-12-05T04:19:32;3.30;99.90
23591;DHT22;11973;52.098;7.582;2022-12-05T04:22:20;3.30;99.90
23591;DHT22;11973;52.098;7.582;2022-12-05T04:24:48;3.30;99.90
23591;DHT22;11973;52.098;7.582;2022-12-05T04:27:49;3.30;99.90
23591;DHT22;11973;52.098;7.582;2022-12-05T04:30:20;3.30;99.90
23591;DHT22;11973;52.098;7.582;2022-12-05T04:36:03;3.40;99.90
23591;DHT22;11973;52.098;7.582;2022-12-05T04:41:16;3.40;99.90
23591;DHT22;11973;52.098;7.582;2022-12-05T04:43:45;3.40;99.90
23591;DHT22;11973;52.098;7.582;2022-12-05T04:46:14;3.40;99.90
23591;DHT22;11973;52.098;7.582;2022-12-05T04:48:42;3.40;99.90
23591;DHT22;11973;52.098;7.582;2022-12-05T04:51:16;3.40;99.90
23591;DHT22;11973;52.098;7.582;2022-12-05T04:53:44;3.40;99.90
23591;DHT22;11973;52.098;7.582;2022-12-05T04:56:14;3.40;99.90
23591;DHT22;11973;52.098;7.582;2022-12-05T04:58:41;3.50;99.90
23591;DHT22;11973;52.098;7.582;2022-12-05T05:01:24;3.40;99.90
23591;DHT22;11973;52.098;7.582;2022-12-05T05:04:05;3.40;99.90
23591;DHT22;11973;52.098;7.582;2022-12-05T05:06:31;3.40;99.90
23591;DHT22;11973;52.098;7.582;2022-12-05T05:08:57;3.40;99.90
23591;DHT22;11973;52.098;7.582;2022-12-05T05:11:27;3.40;99.90
23591;DHT22;11973;52.098;7.582;2022-12-05T05:13:53;3.40;99.90
23591;DHT22;11973;52.098;7.582;2022-12-05T06:15:43;3.50;99.90
23591;DHT22;11973;52.098;7.582;2022-12-05T06:18:08;3.50;99.90
23591;DHT22;11973;52.098;7.582;2022-12-05T06:20:34;3.50;99.90
23591;DHT22;11973;52.098;7.582;2022-12-05T06:23:00;3.50;99.90
23591;DHT22;11973;52.098;7.582;2022-12-05T06:25:25;3.50;99.90
23591;DHT22;11973;52.098;7.582;2022-12-05T06:27:51;3.50;99.90
23591;DHT22;11973;52.098;7.582;2022-12-05T06:30:17;3.60;99.90
23591;DHT22;11973;52.098;7.582;2022-12-05T06:32:43;3.50;99.90
23591;DHT22;11973;52.098;7.582;2022-12-05T06:35:08;3.60;99.90
23591;DHT22;11973;52.098;7.582;2022-12-05T06:37:44;3.60;99.90
23591;DHT22;11973;52.098;7.582;2022-12-05T06:40:12;3.50;99.90
23591;DHT22;11973;52.098;7.582;2022-12-05T06:42:38;3.60;99.90
23591;DHT22;11973;52.098;7.582;2022-12-05T06:45:04;3.60;99.90
23591;DHT22;11973;52.098;7.582;2022-12-05T06:47:30;3.60;99.90
23591;DHT22;11973;52.098;7.582;2022-12-05T06:49:56;3.70;99.90
23591;DHT22;11973;52.098;7.582;2022-12-05T06:52:22;3.60;99.90
23591;DHT22;11973;52.098;7.582;2022-12-05T06:54:56;3.60;99.90
23591;DHT22;11973;52.098;7.582;2022-12-05T06:57:24;3.60;99.90
23591;DHT22;11973;52.098;7.582;2022-12-05T06:59:50;3.60;99.90
23591;DHT22;11973;52.098;7.582;2022-12-05T07:02:15;3.60;99.90
23591;DHT22;11973;52.098;7.582;2022-12-05T07:04:41;3.60;99.90
23591;DHT22;11973;52.098;7.582;2022-12-05T07:07:07;3.60;99.90
23591;DHT22;11973;52.098;7.582;2022-12-05T07:09:34;3.60;99.90
23591;DHT22;11973;52.098;7.582;2022-12-05T07:12:17;3.60;99.90
23591;DHT22;11973;52.098;7.582;2022-12-05T07:14:44;3.60;99.90
23591;DHT22;11973;52.098;7.582;2022-12-05T07:17:12;3.60;99.90
23591;DHT22;11973;52.098;7.582;2022-12-05T07:19:38;3.60;99.90
23591;DHT22;11973;52.098;7.582;2022-12-05T07:22:04;3.60;99.90
23591;DHT22;11973;52.098;7.582;2022-12-05T07:24:30;3.60;99.90
23591;DHT22;11973;52.098;7.582;2022-12-05T07:26:56;3.60;99.90
23591;DHT22;11973;52.098;7.582;2022-12-05T07:29:22;3.60;99.90
23591;DHT22;11973;52.098;7.582;2022-12-05T07:31:47;3.60;99.90
23591;DHT22;11973;52.098;7.582;2022-12-05T07:34:13;3.60;99.90
23591;DHT22;11973;52.098;7.582;2022-12-05T07:36:39;3.60;99.90
23591;DHT22;11973;52.098;7.582;2022-12-05T07:39:05;3.60;99.90
23591;DHT22;11973;52.098;7.582;2022-12-05T07:41:33;3.60;99.90
23591;DHT22;11973;52.098;7.582;2022-12-05T07:44:05;3.90;99.90
23591;DHT22;11973;52.098;7.582;2022-12-05T07:46:31;3.60;99.90
23591;DHT22;11973;52.098;7.582;2022-12-05T07:48:56;3.60;99.90
23591;DHT22;11973;52.098;7.582;2022-12-05T07:51:22;3.60;99.90
23591;DHT22;11973;52.098;7.582;2022-12-05T07:53:50;3.60;99.90
23591;DHT22;11973;52.098;7.582;2022-12-05T07:56:16;3.60;99.90
23591;DHT22;11973;52.098;7.582;2022-12-05T07:58:45;3.60;99.90
23591;DHT22;11973;52.098;7.582;2022-12-05T08:01:20;3.60;99.90
23591;DHT22;11973;52.098;7.582;2022-12-05T08:03:47;3.60;99.90
23591;DHT22;11973;52.098;7.582;2022-12-05T08:06:16;3.60;99.90
23591;DHT22;11973;52.098;7.582;2022-12-05T08:08:42;3.60;99.90
23591;DHT22;11973;52.098;7.582;2022-12-05T08:11:18;3.60;99.90
23591;DHT22;11973;52.098;7.582;2022-12-05T08:13:44;3.60;99.90
23591;DHT22;11973;52.098;7.582;2022-12-05T08:16:12;3.80;99.90
23591;DHT22;11973;52.098;7.582;2022-12-05T08:18:39;3.60;99.90
23591;DHT22;11973;52.098;7.582;2022-12-05T08:21:13;3.60;99.90
23591;DHT22;11973;52.098;7.582;2022-12-05T08:23:40;3.60;99.90
23591;DHT22;11973;52.098;7.582;2022-12-05T08:26:11;3.60;99.90
23591;DHT22;11973;52.098;7.582;2022-12-05T08:28:38;3.70;99.90
23591;DHT22;11973;52.098;7.582;2022-12-05T08:31:10;3.70;99.90
23591;DHT22;11973;52.098;7.582;2022-12-05T08:33:36;3.70;99.90
23591;DHT22;11973;52.098;7.582;2022-12-05T08:36:04;3.70;99.90
23591;DHT22;11973;52.098;7.582;2022-12-05T08:38:30;3.70;99.90
23591;DHT22;11973;52.098;7.582;2022-12-05T08:41:02;3.70;99.90
23591;DHT22;11973;52.098;7.582;2022-12-05T08:43:29;3.70;99.90
23591;DHT22;11973;52.098;7.582;2022-12-05T08:45:55;3.70;99.90
23591;DHT22;11973;52.098;7.582;2022-12-05T08:48:22;3.70;99.90
23591;DHT22;11973;52.098;7.582;2022-12-05T08:50:48;3.70;99.90
23591;DHT22;11973;52.098;7.582;2022-12-05T08:53:14;3.70;99.90
23591;DHT22;11973;52.098;7.582;2022-12-05T08:55:40;3.70;99.90
23591;DHT22;11973;52.098;7.582;2022-12-05T08:58:06;3.70;99.90
23591;DHT22;11973;52.098;7.582;2022-12-05T09:00:32;3.70;99.90
23591;DHT22;11973;52.098;7.582;2022-12-05T09:02:58;3.70;99.90
23591;DHT22;11973;52.098;7.582;2022-12-05T09:05:24;3.80;99.90
23591;DHT22;11973;52.098;7.582;2022-12-05T09:07:50;3.70;99.90
23591;DHT22;11973;52.098;7.582;2022-12-05T09:10:16;4.00;99.90
23591;DHT22;11973;52.098;7.582;2022-12-05T09:12:42;3.70;99.90
23591;DHT22;11973;52.098;7.582;2022-12-05T09:15:09;3.70;99.90
23591;DHT22;11973;52.098;7.582;2022-12-05T09:17:36;3.80;99.90
23591;DHT22;11973;52.098;7.582;2022-12-05T09:20:03;3.70;99.90
23591;DHT22;11973;52.098;7.582;2022-12-05T09:22:32;3.80;99.90
23591;DHT22;11973;52.098;7.582;2022-12-05T09:24:58;3.80;99.90
23591;DHT22;11973;52.098;7.582;2022-12-05T09:27:27;3.80;99.90
23591;DHT22;11973;52.098;7.582;2022-12-05T09:29:53;4.00;99.90
23591;DHT22;11973;52.098;7.582;2022-12-05T09:32:18;3.80;99.90
23591;DHT22;11973;52.098;7.582;2022-12-05T09:34:44;3.80;99.90
23591;DHT22;11973;52.098;7.582;2022-12-05T09:37:10;3.80;99.90
23591;DHT22;11973;52.098;7.582;2022-12-05T09:39:39;3.80;99.90
23591;DHT22;11973;52.098;7.582;2022-12-05T09:45:26;3.80;99.90
23591;DHT22;11973;52.098;7.582;2022-12-05T09:48:14;3.80;99.90
23591;DHT22;11973;52.098;7.582;2022-12-05T09:50:49;3.80;99.90
23591;DHT22;11973;52.098;7.582;2022-12-05T09:53:31;3.80;99.90
23591;DHT22;11973;52.098;7.582;2022-12-05T09:56:12;3.80;99.90
23591;DHT22;11973;52.098;7.582;2022-12-05T09:58:48;3.80;99.90
23591;DHT22;11973;52.098;7.582;2022-12-05T10:06:32;3.80;99.90
23591;DHT22;11973;52.098;7.582;2022-12-05T10:12:01;3.80;99.90
23591;DHT22;11973;52.098;7.582;2022-12-05T10:17:51;3.90;99.90
23591;DHT22;11973;52.098;7.582;2022-12-05T10:20:23;3.90;99.90
23591;DHT22;11973;52.098;7.582;2022-12-05T10:23:02;3.90;99.90
23591;DHT22;11973;52.098;7.582;2022-12-05T10:25:28;3.90;99.90
23591;DHT22;11973;52.098;7.582;2022-12-05T10:28:02;3.90;99.90
23591;DHT22;11973;52.098;7.582;2022-12-05T10:30:33;4.00;99.90
23591;DHT22;11973;52.098;7.582;2022-12-05T10:33:14;4.00;99.90
23591;DHT22;11973;52.098;7.582;2022-12-05T10:35:42;4.00;99.90
23591;DHT22;11973;52.098;7.582;2022-12-05T10:40:51;4.00;99.90
23591;DHT22;11973;52.098;7.582;2022-12-05T10:43:24;4.00;99.90
23591;DHT22;11973;52.098;7.582;2022-12-05T10:45:50;4.00;99.90
23591;DHT22;11973;52.098;7.582;2022-12-05T10:48:18;4.10;99.90
23591;DHT22;11973;52.098;7.582;2022-12-05T10:50:46;4.10;99.90
23591;DHT22;11973;52.098;7.582;2022-12-05T10:56:37;4.10;99.90
23591;DHT22;11973;52.098;7.582;2022-12-05T10:59:05;4.10;99.90
23591;DHT22;11973;52.098;7.582;2022-12-05T11:01:31;4.00;99.90
23591;DHT22;11973;52.098;7.582;2022-12-05T11:04:07;4.00;99.90
23591;DHT22;11973;52.098;7.582;2022-12-05T11:06:35;4.00;99.90
23591;DHT22;11973;52.098;7.582;2022-12-05T11:09:15;4.00;99.90
23591;DHT22;11973;52.098;7.582;2022-12-05T11:11:42;4.00;99.90
23591;DHT22;11973;52.098;7.582;2022-12-05T11:14:24;4.00;99.90
23591;DHT22;11973;52.098;7.582;2022-12-05T11:16:55;4.00;99.90
23591;DHT22;11973;52.098;7.582;2022-12-05T11:21:48;4.00;99.90
23591;DHT22;11973;52.098;7.582;2022-12-05T11:24:35;4.00;99.90
23591;DHT22;11973;52.098;7.582;2022-12-05T11:30:08;3.90;99.90
23591;DHT22;11973;52.098;7.582;2022-12-05T11:32:39;3.90;99.90
23591;DHT22;11973;52.098;7.582;2022-12-05T11:37:50;3.90;99.90
23591;DHT22;11973;52.098;7.582;2022-12-05T11:40:29;3.90;99.90
23591;DHT22;11973;52.098;7.582;2022-12-05T11:43:28;3.90;99.90
23591;DHT22;11973;52.098;7.582;2022-12-05T11:49:07;3.90;99.90
23591;DHT22;11973;52.098;7.582;2022-12-05T11:56:38;4.00;99.90
23591;DHT22;11973;52.098;7.582;2022-12-05T11:59:26;4.00;99.90
23591;DHT22;11973;52.098;7.582;2022-12-05T12:08:02;4.10;99.90
23591;DHT22;11973;52.098;7.582;2022-12-05T12:13:46;4.10;99.90
23591;DHT22;11973;52.098;7.582;2022-12-05T12:19:28;4.10;99.90
23591;DHT22;11973;52.098;7.582;2022-12-05T12:27:57;4.10;99.90
23591;DHT22;11973;52.098;7.582;2022-12-05T12:33:29;4.00;99.90
23591;DHT22;11973;52.098;7.582;2022-12-05T12:50:32;3.90;99.90
23591;DHT22;11973;52.098;7.582;2022-12-05T12:53:10;3.90;99.90
23591;DHT22;11973;52.098;7.582;2022-12-05T13:03:56;3.80;99.90
23591;DHT22;11973;52.098;7.582;2022-12-05T13:06:56;3.80;99.90
23591;DHT22;11973;52.098;7.582;2022-12-05T13:09:41;3.80;99.90
23591;DHT22;11973;52.098;7.582;2022-12-05T13:12:12;3.80;99.90
23591;DHT22;11973;52.098;7.582;2022-12-05T13:14:43;3.80;99.90
23591;DHT22;11973;52.098;7.582;2022-12-05T13:17:15;3.80;99.90
23591;DHT22;11973;52.098;7.582;2022-12-05T13:19:46;3.80;99.90
23591;DHT22;11973;52.098;7.582;2022-12-05T13:22:13;3.80;99.90
23591;DHT22;11973;52.098;7.582;2022-12-05T13:24:41;3.80;99.90
23591;DHT22;11973;52.098;7.582;2022-12-05T13:27:13;3.80;99.90
23591;DHT22;11973;52.098;7.582;2022-12-05T13:29:52;3.80;99.90
23591;DHT22;11973;52.098;7.582;2022-12-05T13:32:37;3.80;99.90
23591;DHT22;11973;52.098;7.582;2022-12-05T13:35:18;3.80;99.90
23591;DHT22;11973;52.098;7.582;2022-12-05T13:38:03;3.80;99.90
23591;DHT22;11973;52.098;7.582;2022-12-05T13:40:52;3.80;99.90
23591;DHT22;11973;52.098;7.582;2022-12-05T13:43:42;3.80;99.90
23591;DHT22;11973;52.098;7.582;2022-12-05T13:46:21;3.80;99.90
23591;DHT22;11973;52.098;7.582;2022-12-05T13:48:48;3.80;99.90
23591;DHT22;11973;52.098;7.582;2022-12-05T13:51:30;3.80;99.90
23591;DHT22;11973;52.098;7.582;2022-12-05T13:54:02;4.00;99.90
23591;DHT22;11973;52.098;7.582;2022-12-05T13:56:57;4.00;99.90
23591;DHT22;11973;52.098;7.582;2022-12-05T14:05:45;3.80;99.90
23591;DHT22;11973;52.098;7.582;2022-12-05T14:18:59;3.80;99.90
23591;DHT22;11973;52.098;7.582;2022-12-05T14:21:48;3.80;99.90
23591;DHT22;11973;52.098;7.582;2022-12-05T14:27:11;3.80;99.90
23591;DHT22;11973;52.098;7.582;2022-12-05T14:30:08;3.80;99.90
23591;DHT22;11973;52.098;7.582;2022-12-05T14:32:40;3.70;99.90
23591;DHT22;11973;52.098;7.582;2022-12-05T14:37:50;3.70;99.90
23591;DHT22;11973;52.098;7.582;2022-12-05T14:40:32;3.70;99.90
23591;DHT22;11973;52.098;7.582;2022-12-05T14:43:01;3.70;99.90
23591;DHT22;11973;52.098;7.582;2022-12-05T14:50:53;3.70;99.90
23591;DHT22;11973;52.098;7.582;2022-12-05T14:55:47;3.70;99.90
23591;DHT22;11973;52.098;7.582;2022-12-05T15:01:31;3.70;99.90
23591;DHT22;11973;52.098;7.582;2022-12-05T15:07:07;3.60;99.90
23591;DHT22;11973;52.098;7.582;2022-12-05T15:10:23;3.60;99.90
23591;DHT22;11973;52.098;7.582;2022-12-05T15:17:55;3.60;99.90
23591;DHT22;11973;52.098;7.582;2022-12-05T15:20:47;3.60;99.90
23591;DHT22;11973;52.098;7.582;2022-12-05T15:23:44;3.60;99.90
23591;DHT22;11973;52.098;7.582;2022-12-05T15:29:11;3.60;99.90
23591;DHT22;11973;52.098;7.582;2022-12-05T15:34:35;3.60;99.90
23591;DHT22;11973;52.098;7.582;2022-12-05T15:40:10;3.80;99.90
23591;DHT22;11973;52.098;7.582;2022-12-05T15:42:43;3.60;99.90
23591;DHT22;11973;52.098;7.582;2022-12-05T15:47:44;3.60;99.90
23591;DHT22;11973;52.098;7.582;2022-12-05T15:50:15;3.60;99.90
23591;DHT22;11973;52.098;7.582;2022-12-05T15:53:02;3.60;99.90
23591;DHT22;11973;52.098;7.582;2022-12-05T15:55:49;3.60;99.90
23591;DHT22;11973;52.098;7.582;2022-12-05T16:00:51;3.60;99.90
23591;DHT22;11973;52.098;7.582;2022-12-05T16:06:03;3.60;99.90
23591;DHT22;11973;52.098;7.582;2022-12-05T16:08:29;3.60;99.90
23591;DHT22;11973;52.098;7.582;2022-12-05T16:11:12;3.60;99.90
23591;DHT22;11973;52.098;7.582;2022-12-05T16:13:48;3.60;99.90
23591;DHT22;11973;52.098;7.582;2022-12-05T16:16:21;3.60;99.90
23591;DHT22;11973;52.098;7.582;2022-12-05T16:18:58;3.60;99.90
23591;DHT22;11973;52.098;7.582;2022-12-05T16:21:32;3.60;99.90
23591;DHT22;11973;52.098;7.582;2022-12-05T16:24:26;3.60;99.90
23591;DHT22;11973;52.098;7.582;2022-12-05T16:27:20;3.60;99.90
23591;DHT22;11973;52.098;7.582;2022-12-05T16:30:07;3.60;99.90
23591;DHT22;11973;52.098;7.582;2022-12-05T16:32:35;3.60;99.90
23591;DHT22;11973;52.098;7.582;2022-12-05T16:35:02;3.60;99.90
23591;DHT22;11973;52.098;7.582;2022-12-05T16:37:29;3.60;99.90
23591;DHT22;11973;52.098;7.582;2022-12-05T16:39:55;3.60;99.90
23591;DHT22;11973;52.098;7.582;2022-12-05T16:42:26;3.60;99.90
23591;DHT22;11973;52.098;7.582;2022-12-05T16:48:12;3.60;99.90
23591;DHT22;11973;52.098;7.582;2022-12-05T16:50:22;3.60;99.90
23591;DHT22;11973;52.098;7.582;2022-12-05T16:52:49;3.60;99.90
23591;DHT22;11973;52.098;7.582;2022-12-05T16:55:18;3.60;99.90
23591;DHT22;11973;52.098;7.582;2022-12-05T16:57:44;3.60;99.90
23591;DHT22;11973;52.098;7.582;2022-12-05T17:00:13;3.60;99.90
23591;DHT22;11973;52.098;7.582;2022-12-05T17:02:39;3.60;99.90
23591;DHT22;11973;52.098;7.582;2022-12-05T17:05:12;3.60;99.90
23591;DHT22;11973;52.098;7.582;2022-12-05T17:07:38;3.60;99.90
23591;DHT22;11973;52.098;7.582;2022-12-05T17:10:04;3.60;99.90
23591;DHT22;11973;52.098;7.582;2022-12-05T17:12:30;3.60;99.90
23591;DHT22;11973;52.098;7.582;2022-12-05T17:14:56;3.60;99.90
23591;DHT22;11973;52.098;7.582;2022-12-05T17:17:23;3.60;99.90
23591;DHT22;11973;52.098;7.582;2022-12-05T17:19:58;3.60;99.90
23591;DHT22;11973;52.098;7.582;2022-12-05T17:22:24;3.60;99.90
23591;DHT22;11973;52.098;7.582;2022-12-05T17:24:51;3.90;99.90
23591;DHT22;11973;52.098;7.582;2022-12-05T17:27:17;3.60;99.90
23591;DHT22;11973;52.098;7.582;2022-12-05T17:29:42;3.60;99.90
23591;DHT22;11973;52.098;7.582;2022-12-05T17:32:09;3.60;99.90
23591;DHT22;11973;52.098;7.582;2022-12-05T17:34:35;3.60;99.90
23591;DHT22;11973;52.098;7.582;2022-12-05T17:37:01;3.80;99.90
23591;DHT22;11973;52.098;7.582;2022-12-05T17:39:27;3.60;99.90
23591;DHT22;11973;52.098;7.582;2022-12-05T17:41:52;3.80;99.90
23591;DHT22;11973;52.098;7.582;2022-12-05T17:44:18;3.60;99.90
23591;DHT22;11973;52.098;7.582;2022-12-05T17:46:44;3.60;99.90
23591;DHT22;11973;52.098;7.582;2022-12-05T17:49:14;3.50;99.90
23591;DHT22;11973;52.098;7.582;2022-12-05T17:51:41;3.60;99.90
23591;DHT22;11973;52.098;7.582;2022-12-05T17:54:07;3.50;99.90
23591;DHT22;11973;52.098;7.582;2022-12-05T17:56:34;3.50;99.90
23591;DHT22;11973;52.098;7.582;2022-12-05T17:59:01;3.60;99.90
23591;DHT22;11973;52.098;7.582;2022-12-05T18:01:27;3.50;99.90
23591;DHT22;11973;52.098;7.582;2022-12-05T18:03:53;3.60;99.90
23591;DHT22;11973;52.098;7.582;2022-12-05T18:06:18;3.60;99.90
23591;DHT22;11973;52.098;7.582;2022-12-05T18:08:44;3.60;99.90
23591;DHT22;11973;52.098;7.582;2022-12-05T18:11:14;3.60;99.90
23591;DHT22;11973;52.098;7.582;2022-12-05T18:13:40;3.80;99.90
23591;DHT22;11973;52.098;7.582;2022-12-05T18:16:06;3.60;99.90
23591;DHT22;11973;52.098;7.582;2022-12-05T18:18:32;3.60;99.90
23591;DHT22;11973;52.098;7.582;2022-12-05T18:21:09;3.60;99.90
23591;DHT22;11973;52.098;7.582;2022-12-05T18:23:36;3.60;99.90
23591;DHT22;11973;52.098;7.582;2022-12-05T18:26:02;3.60;99.90
23591;DHT22;11973;52.098;7.582;2022-12-05T18:28:28;3.60;99.90
23591;DHT22;11973;52.098;7.582;2022-12-05T18:31:09;3.60;99.90
23591;DHT22;11973;52.098;7.582;2022-12-05T18:33:37;3.60;99.90
23591;DHT22;11973;52.098;7.582;2022-12-05T18:36:09;3.60;99.90
23591;DHT22;11973;52.098;7.582;2022-12-05T18:38:37;3.60;99.90
23591;DHT22;11973;52.098;7.582;2022-12-05T18:41:05;3.60;99.90
23591;DHT22;11973;52.098;7.582;2022-12-05T18:43:32;3.60;99.90
23591;DHT22;11973;52.098;7.582;2022-12-05T18:46:00;3.60;99.90
23591;DHT22;11973;52.098;7.582;2022-12-05T18:48:30;3.60;99.90
23591;DHT22;11973;52.098;7.582;2022-12-05T18:51:15;3.60;99.90
23591;DHT22;11973;52.098;7.582;2022-12-05T18:53:42;3.60;99.90
23591;DHT22;11973;52.098;7.582;2022-12-05T18:56:16;3.70;99.90
23591;DHT22;11973;52.098;7.582;2022-12-05T18:58:43;3.80;99.90
23591;DHT22;11973;52.098;7.582;2022-12-05T19:01:11;3.60;99.90
23591;DHT22;11973;52.098;7.582;2022-12-05T19:03:38;3.70;99.90
23591;DHT22;11973;52.098;7.582;2022-12-05T19:06:15;3.70;99.90
23591;DHT22;11973;52.098;7.582;2022-12-05T19:08:41;3.80;99.90
23591;DHT22;11973;52.098;7.582;2022-12-05T19:11:15;3.70;99.90
23591;DHT22;11973;52.098;7.582;2022-12-05T19:13:42;3.70;99.90
23591;DHT22;11973;52.098;7.582;2022-12-05T19:16:10;3.70;99.90
23591;DHT22;11973;52.098;7.582;2022-12-05T19:18:39;3.70;99.90
23591;DHT22;11973;52.098;7.582;2022-12-05T19:21:05;3.70;99.90
23591;DHT22;11973;52.098;7.582;2022-12-05T19:23:32;3.70;99.90
23591;DHT22;11973;52.098;7.582;2022-12-05T19:26:04;3.70;99.90
23591;DHT22;11973;52.098;7.582;2022-12-05T19:28:32;3.70;99.90
23591;DHT22;11973;52.098;7.582;2022-12-05T19:31:06;3.60;99.90
23591;DHT22;11973;52.098;7.582;2022-12-05T19:33:34;3.70;99.90
23591;DHT22;11973;52.098;7.582;2022-12-05T19:36:05;3.80;99.90
23591;DHT22;11973;52.098;7.582;2022-12-05T19:38:35;3.70;99.90
23591;DHT22;11973;52.098;7.582;2022-12-05T19:41:05;3.70;99.90
23591;DHT22;11973;52.098;7.582;2022-12-05T19:43:32;3.60;99.90
23591;DHT22;11973;52.098;7.582;2022-12-05T19:46:02;3.90;99.90
23591;DHT22;11973;52.098;7.582;2022-12-05T19:48:28;3.60;99.90
23591;DHT22;11973;52.098;7.582;2022-12-05T19:50:55;3.60;99.90
23591;DHT22;11973;52.098;7.582;2022-12-05T19:53:22;3.60;99.90
23591;DHT22;11973;52.098;7.582;2022-12-05T19:55:48;3.60;99.90
23591;DHT22;11973;52.098;7.582;2022-12-05T19:58:14;3.60;99.90
23591;DHT22;11973;52.098;7.582;2022-12-05T20:00:40;3.80;99.90
23591;DHT22;11973;52.098;7.582;2022-12-05T20:03:06;3.60;99.90
23591;DHT22;11973;52.098;7.582;2022-12-05T20:05:32;3.50;99.90
23591;DHT22;11973;52.098;7.582;2022-12-05T20:07:59;3.50;99.90